Time;durP1;ratioP1;P1;durP2;ratioP2;P2;SDS_P1;SDS_P2;PMS_P1;PMS_P2;Temp;Humidity;BMP_temperature;BMP_pressure;BME280_temperature;BME280_humidity;BME280_pressure;Samples;Min_cycle;Max_cycle;Signal;HPM_P1;HPM_P2
2022/01/25 04:49:19;;;;;;;;;;;;;;;1.54;81.71;98434.16;4259366;27;10230;-67
2022/01/25 04:51:40;;;;;;;;;;;;;;;1.42;82.21;98443.56;4234385;27;6929;-67
2022/01/25 04:54:08;;;;;;;;;;;;;;;1.37;82.27;98441.25;4240515;27;5721;-67
2022/01/25 04:56:19;;;;;;;;;;;;;;;1.26;82.86;98440.25;4242512;27;5781;-67
2022/01/25 04:58:32;;;;;;;;;;;;;;;1.26;82.87;98445.47;4237804;27;6545;-68
2022/01/25 05:00:34;;;;;;;;;;;;;;;1.27;82.62;98439.31;4244712;27;5754;-68
2022/01/25 05:04:47;;;;;;;;;;;;;;;1.39;82.31;98447.22;4250197;27;5705;-69
2022/01/25 05:06:51;;;;;;;;;;;;;;;1.45;82.21;98443.38;4249654;27;5646;-68
2022/01/25 05:08:57;;;;;;;;;;;;;;;1.50;81.81;98443.94;4246844;27;5646;-67
2022/01/25 05:11:07;;;;;;;;;;;;;;;1.52;81.95;98442.06;4234992;27;5660;-68
2022/01/25 05:13:39;;;;;;;;;;;;;;;1.50;82.08;98449.16;4231132;28;5788;-67
2022/01/25 05:18:00;;;;;;;;;;;;;;;1.58;81.71;98449.47;4250433;27;5687;-66
2022/01/25 05:22:27;;;;;;;;;;;;;;;1.70;81.21;98459.16;4232800;27;5680;-67
2022/01/25 05:24:29;;;;;;;;;;;;;;;1.81;80.88;98450.63;4232267;27;5761;-67
2022/01/25 05:26:30;;;;;;;;;;;;;;;1.75;81.19;98454.47;4239358;27;6348;-68
2022/01/25 05:28:33;;;;;;;;;;;;;;;1.68;81.59;98455.78;4232369;27;5663;-68
2022/01/25 05:30:35;;;;;;;;;;;;;;;1.86;81.00;98458.19;4242630;27;5687;-68
2022/01/25 05:32:37;;;;;;;;;;;;;;;1.93;80.71;98454.25;4231749;28;5838;-68
2022/01/25 05:34:39;;;;;;;;;;;;;;;1.93;80.78;98456.84;4231838;27;6372;-67
2022/01/25 05:36:43;;;;;;;;;;;;;;;1.99;80.54;98453.84;4236490;27;6196;-66
2022/01/25 05:38:46;;;;;;;;;;;;;;;1.90;80.80;98460.47;4231861;27;5809;-66
2022/01/25 05:40:57;;;;;;;;;;;;;;;1.79;81.23;98462.94;4236689;27;5646;-66
2022/01/25 05:47:26;;;;;;;;;;;;;;;1.56;82.06;98464.38;4231622;27;6583;-67
2022/01/25 05:49:27;;;;;;;;;;;;;;;1.57;81.97;98467.81;4224708;27;5680;-66
2022/01/25 05:51:29;;;;;;;;;;;;;;;1.57;82.21;98467.81;4221766;28;5695;-66
2022/01/25 05:53:31;;;;;;;;;;;;;;;1.58;82.05;98478.16;4220940;28;5814;-67
2022/01/25 05:55:33;;;;;;;;;;;;;;;1.55;81.94;98470.53;4220187;28;5968;-67
2022/01/25 05:57:35;;;;;;;;;;;;;;;1.51;82.72;98471.66;4219309;28;5687;-67
2022/01/25 05:59:37;;;;;;;;;;;;;;;1.49;82.87;98470.09;4228627;28;5692;-66
2022/01/25 06:01:38;;;;;;;;;;;;;;;1.52;82.58;98480.31;4225931;28;5642;-67
2022/01/25 06:03:42;;;;;;;;;;;;;;;1.52;82.68;98473.34;4224130;27;5776;-67
2022/01/25 06:05:44;;;;;;;;;;;;;;;1.57;82.54;98471.28;4221174;28;5676;-67
2022/01/25 06:07:46;;;;;;;;;;;;;;;1.61;82.56;98472.78;4223650;28;5798;-67
2022/01/25 06:09:49;;;;;;;;;;;;;;;1.55;82.61;98467.09;4237873;27;5669;-67
2022/01/25 06:11:54;;;;;;;;;;;;;;;1.61;82.48;98471.94;4236298;28;5650;-67
2022/01/25 06:13:56;;;;;;;;;;;;;;;1.66;82.33;98467.25;4221323;28;5679;-67
2022/01/25 06:15:57;;;;;;;;;;;;;;;1.75;81.76;98470.13;4222946;27;5907;-67
2022/01/25 06:18:02;;;;;;;;;;;;;;;1.74;82.03;98476.28;4219637;28;5089;-67
2022/01/25 06:20:05;;;;;;;;;;;;;;;1.75;82.24;98475.34;4220196;28;5668;-67
2022/01/25 06:22:13;;;;;;;;;;;;;;;1.77;82.28;98471.78;4222601;28;5105;-67
2022/01/25 06:24:19;;;;;;;;;;;;;;;1.73;82.33;98471.16;4225755;28;5670;-66
2022/01/25 06:26:21;;;;;;;;;;;;;;;1.63;82.66;98467.47;4219595;28;5887;-66
2022/01/25 06:28:23;;;;;;;;;;;;;;;1.61;82.78;98472.78;4220481;28;6477;-67
2022/01/25 06:30:25;;;;;;;;;;;;;;;1.50;83.03;98471.78;4218227;28;6379;-66
2022/01/25 06:32:26;;;;;;;;;;;;;;;1.51;83.04;98470.84;4220132;28;5672;-67
2022/01/25 06:34:29;;;;;;;;;;;;;;;1.46;83.45;98466.72;4222849;28;5304;-68
2022/01/25 06:36:31;;;;;;;;;;;;;;;1.49;83.16;98480.53;4223975;28;6723;-68
2022/01/25 06:38:35;;;;;;;;;;;;;;;1.52;83.03;98473.34;4219230;28;5668;-67
2022/01/25 06:40:36;;;;;;;;;;;;;;;1.51;83.24;98471.66;4219249;28;5675;-67
2022/01/25 06:42:39;;;;;;;;;;;;;;;1.45;83.47;98478.09;4235906;28;5654;-68
2022/01/25 06:44:40;;;;;;;;;;;;;;;1.48;83.55;98477.09;4234240;28;5789;-68
2022/01/25 06:46:42;;;;;;;;;;;;;;;1.43;83.67;98477.34;4208829;28;5723;-68
2022/01/25 06:48:44;;;;;;;;;;;;;;;1.40;83.71;98484.53;4235357;28;5651;-68
2022/01/25 06:50:46;;;;;;;;;;;;;;;1.47;83.62;98485.81;4225429;28;5680;-68
2022/01/25 06:52:47;;;;;;;;;;;;;;;1.53;83.36;98482.00;4231008;28;5682;-68
2022/01/25 06:55:11;;;;;;;;;;;;;;;1.59;83.20;98481.63;4224915;28;5672;-67
2022/01/25 06:57:13;;;;;;;;;;;;;;;1.65;82.86;98484.66;4227046;27;5734;-68
2022/01/25 06:59:15;;;;;;;;;;;;;;;1.58;83.42;98488.59;4224446;28;5783;-68
2022/01/25 07:01:17;;;;;;;;;;;;;;;1.57;83.29;98489.50;4223585;28;5658;-68
2022/01/25 07:03:20;;;;;;;;;;;;;;;1.56;83.29;98493.06;4232420;27;5772;-68
2022/01/25 07:05:21;;;;;;;;;;;;;;;1.54;83.13;98492.31;4223307;27;5958;-67
2022/01/25 07:07:23;;;;;;;;;;;;;;;1.59;83.25;98492.88;4212099;28;6445;-67
2022/01/25 07:09:25;;;;;;;;;;;;;;;1.64;83.19;98496.03;4233331;28;5654;-67
2022/01/25 07:11:29;;;;;;;;;;;;;;;1.64;82.93;98488.22;4218792;28;5676;-67
2022/01/25 07:13:31;;;;;;;;;;;;;;;1.67;82.95;98487.19;4234970;28;5698;-67
2022/01/25 07:15:32;;;;;;;;;;;;;;;1.69;82.86;98493.13;4236913;28;5734;-67
2022/01/25 07:17:34;;;;;;;;;;;;;;;1.72;82.81;98490.34;4225029;27;5687;-67
2022/01/25 07:19:37;;;;;;;;;;;;;;;1.75;82.90;98492.75;4230198;28;5658;-67
2022/01/25 07:21:38;;;;;;;;;;;;;;;1.74;82.70;98489.31;4235035;28;5654;-67
2022/01/25 07:23:41;;;;;;;;;;;;;;;1.63;82.99;98494.38;4219372;28;5758;-67
2022/01/25 07:25:42;;;;;;;;;;;;;;;1.60;83.05;98491.97;4230950;28;5717;-67
2022/01/25 07:27:44;;;;;;;;;;;;;;;1.61;83.00;98501.44;4202508;28;5697;-67
2022/01/25 07:29:47;;;;;;;;;;;;;;;1.60;83.29;98491.97;4224960;28;5960;-67
2022/01/25 07:31:48;;;;;;;;;;;;;;;1.54;83.19;98500.16;4219368;28;5782;-67
2022/01/25 07:33:51;;;;;;;;;;;;;;;1.61;83.16;98504.06;4229179;28;6330;-67
2022/01/25 07:36:07;;;;;;;;;;;;;;;1.68;82.79;98500.13;4224015;27;5759;-68
2022/01/25 07:38:18;;;;;;;;;;;;;;;1.66;83.39;98501.97;4236632;27;5655;-68
2022/01/25 07:40:34;;;;;;;;;;;;;;;1.82;82.61;98501.88;4221688;27;5802;-67
2022/01/25 07:42:40;;;;;;;;;;;;;;;1.82;82.59;98508.88;4220402;28;5646;-68
2022/01/25 07:44:47;;;;;;;;;;;;;;;1.70;82.84;98507.88;4225029;28;5700;-68
2022/01/25 07:46:49;;;;;;;;;;;;;;;1.67;83.05;98498.44;4229359;28;5651;-68
2022/01/25 07:49:00;;;;;;;;;;;;;;;1.66;83.09;98507.19;4230706;28;5660;-68
2022/01/25 07:51:02;;;;;;;;;;;;;;;1.67;83.14;98511.47;4219032;28;5676;-68
2022/01/25 07:53:04;;;;;;;;;;;;;;;1.68;83.29;98500.13;4218995;28;5675;-68
2022/01/25 07:55:06;;;;;;;;;;;;;;;1.74;83.06;98504.13;4228906;28;5663;-67
2022/01/25 07:57:09;;;;;;;;;;;;;;;1.77;82.78;98497.88;4231439;28;5654;-67
2022/01/25 07:59:11;;;;;;;;;;;;;;;1.85;82.57;98503.44;4217199;28;5683;-68
2022/01/25 08:01:14;;;;;;;;;;;;;;;1.81;82.62;98505.38;4218638;28;5724;-68
2022/01/25 08:03:18;;;;;;;;;;;;;;;1.87;82.54;98501.56;4219073;28;6363;-66
2022/01/25 08:05:32;;;;;;;;;;;;;;;1.85;82.49;98500.84;4216367;28;5680;-67
2022/01/25 08:08:00;;;;;;;;;;;;;;;1.81;82.44;98496.72;4189169;28;5713;-67
2022/01/25 08:10:05;;;;;;;;;;;;;;;1.87;82.33;98498.97;4200252;28;5744;-67
2022/01/25 08:12:15;;;;;;;;;;;;;;;1.93;82.14;98498.59;4182910;28;5783;-67
2022/01/25 08:14:23;;;;;;;;;;;;;;;1.85;82.65;98495.63;4171924;28;5823;-67
2022/01/25 08:16:30;;;;;;;;;;;;;;;1.89;82.74;98497.09;4181941;28;5742;-67
2022/01/25 08:18:48;;;;;;;;;;;;;;;2.06;82.11;98499.47;4177823;28;5084;-69
2022/01/25 08:21:08;;;;;;;;;;;;;;;2.10;81.59;98498.34;4199220;28;5729;-67
2022/01/25 08:23:25;;;;;;;;;;;;;;;2.02;81.87;98508.41;4138879;28;5803;-67
2022/01/25 08:25:49;;;;;;;;;;;;;;;2.07;81.64;98506.38;4075019;28;5959;-67
2022/01/25 08:27:51;;;;;;;;;;;;;;;2.12;81.78;98506.06;4084460;29;5898;-68
2022/01/25 08:30:03;;;;;;;;;;;;;;;2.21;81.53;98500.25;4084949;28;5868;-68
2022/01/25 08:32:22;;;;;;;;;;;;;;;2.20;81.31;98504.63;4084471;28;5930;-68
2022/01/25 08:34:36;;;;;;;;;;;;;;;2.20;81.28;98501.19;4085625;29;5954;-68
2022/01/25 08:36:48;;;;;;;;;;;;;;;2.20;81.21;98511.63;4085102;28;6011;-67
2022/01/25 08:38:54;;;;;;;;;;;;;;;2.26;81.25;98511.22;4069488;29;6597;-67
2022/01/25 08:41:06;;;;;;;;;;;;;;;2.18;81.39;98506.50;4085016;29;5879;-67
2022/01/25 08:43:24;;;;;;;;;;;;;;;2.25;81.36;98510.38;4060304;29;5871;-67
2022/01/25 08:45:35;;;;;;;;;;;;;;;2.19;81.63;98510.78;4117879;28;5827;-67
2022/01/25 08:47:46;;;;;;;;;;;;;;;2.14;81.82;98512.00;4101525;28;5837;-67
2022/01/25 08:50:12;;;;;;;;;;;;;;;2.21;81.41;98505.47;4069039;29;6609;-67
2022/01/25 08:52:27;;;;;;;;;;;;;;;2.27;81.51;98502.47;4039110;29;5931;-67
2022/01/25 08:55:51;;;;;;;;;;;;;;;2.13;82.45;98505.94;4022146;29;5961;-68
2022/01/25 08:58:07;;;;;;;;;;;;;;;2.15;82.57;98500.63;4039562;29;5930;-68
2022/01/25 09:00:23;;;;;;;;;;;;;;;2.13;82.53;98500.75;4045702;29;5904;-68
2022/01/25 09:02:42;;;;;;;;;;;;;;;2.24;82.22;98502.66;4093463;28;5956;-68
2022/01/25 09:04:44;;;;;;;;;;;;;;;1.94;83.90;98501.09;4116725;28;5852;-66
2022/01/25 09:06:46;;;;;;;;;;;;;;;2.16;82.79;98511.00;4117589;28;5920;-66
2022/01/25 09:08:51;;;;;;;;;;;;;;;2.30;82.22;98503.09;4100904;28;5857;-67
2022/01/25 09:10:58;;;;;;;;;;;;;;;2.31;81.72;98510.00;4116252;28;6707;-67
2022/01/25 09:13:00;;;;;;;;;;;;;;;2.42;81.41;98506.69;4117824;28;5836;-67
2022/01/25 09:15:03;;;;;;;;;;;;;;;2.47;81.12;98508.97;4096465;28;7343;-67
2022/01/25 09:17:07;;;;;;;;;;;;;;;2.50;81.13;98506.19;4084327;29;5882;-67
2022/01/25 09:19:10;;;;;;;;;;;;;;;2.21;82.24;98506.31;4114491;28;5910;-67
2022/01/25 09:21:12;;;;;;;;;;;;;;;2.19;82.55;98508.19;4115730;28;5832;-67
2022/01/25 09:23:18;;;;;;;;;;;;;;;1.90;83.58;98517.03;4139698;28;5746;-67
2022/01/25 09:25:20;;;;;;;;;;;;;;;1.69;85.08;98525.25;4184535;28;5754;-67
2022/01/25 09:27:21;;;;;;;;;;;;;;;1.82;84.57;98511.47;4204197;28;5661;-68
2022/01/25 09:29:23;;;;;;;;;;;;;;;2.07;83.79;98511.59;4225883;28;5829;-67
2022/01/25 09:31:26;;;;;;;;;;;;;;;2.06;83.60;98509.91;4221207;28;5672;-68
2022/01/25 09:33:28;;;;;;;;;;;;;;;2.24;82.89;98513.09;4220670;28;5704;-68
2022/01/25 09:35:29;;;;;;;;;;;;;;;2.43;82.26;98513.56;4235125;28;5654;-68
2022/01/25 09:37:33;;;;;;;;;;;;;;;2.49;81.78;98522.75;4236755;28;5782;-68
2022/01/25 09:39:35;;;;;;;;;;;;;;;2.46;81.87;98515.16;4236442;28;5793;-68
2022/01/25 09:41:39;;;;;;;;;;;;;;;2.56;81.77;98511.84;4227954;28;5661;-67
2022/01/25 09:43:41;;;;;;;;;;;;;;;2.59;81.60;98518.63;4236691;28;5084;-67
2022/01/25 09:45:43;;;;;;;;;;;;;;;2.56;81.58;98516.22;4233657;28;5717;-68
2022/01/25 09:47:46;;;;;;;;;;;;;;;2.56;81.30;98519.66;4228751;27;5692;-67
2022/01/25 09:49:48;;;;;;;;;;;;;;;2.51;81.27;98520.91;4225174;28;5707;-68
2022/01/25 09:51:52;;;;;;;;;;;;;;;2.41;81.59;98514.63;4220827;28;5830;-68
2022/01/25 09:53:54;;;;;;;;;;;;;;;2.37;81.68;98524.41;4219292;28;5679;-67
2022/01/25 09:55:55;;;;;;;;;;;;;;;2.36;81.64;98519.28;4233284;28;5642;-67
2022/01/25 09:57:57;;;;;;;;;;;;;;;2.34;81.63;98522.00;4219932;28;5909;-67
2022/01/25 09:59:59;;;;;;;;;;;;;;;2.32;81.77;98516.88;4223229;28;5646;-70
2022/01/25 10:02:01;;;;;;;;;;;;;;;2.32;81.82;98519.50;4217302;28;5680;-68
2022/01/25 10:04:24;;;;;;;;;;;;;;;2.30;81.89;98523.16;4219836;28;5671;-67
2022/01/25 10:06:31;;;;;;;;;;;;;;;2.39;81.74;98526.94;4221907;28;5670;-67
2022/01/25 10:08:36;;;;;;;;;;;;;;;2.45;81.63;98526.53;4215976;28;5735;-67
2022/01/25 10:10:49;;;;;;;;;;;;;;;2.43;81.52;98529.25;4223163;28;5660;-67
2022/01/25 10:12:51;;;;;;;;;;;;;;;2.52;81.45;98533.03;4236351;28;5076;-67
2022/01/25 10:14:54;;;;;;;;;;;;;;;2.51;81.43;98531.34;4237553;28;8378;-68
2022/01/25 10:16:56;;;;;;;;;;;;;;;2.62;81.33;98534.94;4222043;28;5671;-67
2022/01/25 10:19:07;;;;;;;;;;;;;;;2.59;81.20;98532.50;4228972;28;5774;-68
2022/01/25 10:21:21;;;;;;;;;;;;;;;2.60;81.07;98535.97;4224269;28;5650;-68
2022/01/25 10:23:31;;;;;;;;;;;;;;;2.62;81.18;98526.28;4232492;27;5750;-68
2022/01/25 10:25:45;;;;;;;;;;;;;;;2.18;83.18;98526.56;4220815;28;5730;-67
2022/01/25 10:28:11;;;;;;;;;;;;;;;2.40;82.45;98536.44;4221450;28;5680;-67
2022/01/25 10:30:14;;;;;;;;;;;;;;;2.56;81.63;98529.28;4219446;28;5758;-68
2022/01/25 10:32:22;;;;;;;;;;;;;;;2.67;81.18;98528.56;4223367;28;5863;-67
2022/01/25 10:34:26;;;;;;;;;;;;;;;2.63;81.14;98530.56;4220517;28;5663;-68
2022/01/25 10:36:27;;;;;;;;;;;;;;;2.66;81.06;98519.91;4219952;28;5679;-68
2022/01/25 10:38:33;;;;;;;;;;;;;;;2.71;81.19;98519.59;4220200;28;5070;-68
2022/01/25 10:40:38;;;;;;;;;;;;;;;2.74;81.12;98527.25;4219778;28;5756;-68
2022/01/25 10:42:41;;;;;;;;;;;;;;;2.51;82.35;98520.91;4221878;28;5680;-67
2022/01/25 10:45:09;;;;;;;;;;;;;;;2.77;81.25;98521.78;4223594;27;5725;-68
2022/01/25 10:47:10;;;;;;;;;;;;;;;2.62;82.06;98521.06;4221523;28;5802;-68
2022/01/25 10:49:13;;;;;;;;;;;;;;;2.45;82.39;98516.09;4218413;28;5660;-68
2022/01/25 10:51:22;;;;;;;;;;;;;;;2.50;82.53;98521.84;4233755;27;5080;-67
2022/01/25 10:53:24;;;;;;;;;;;;;;;2.55;82.21;98527.59;4232204;28;5653;-68
2022/01/25 10:55:44;;;;;;;;;;;;;;;2.75;81.16;98514.06;4228237;27;5692;-67
2022/01/25 10:57:56;;;;;;;;;;;;;;;2.71;81.06;98517.81;4218616;28;5682;-67
2022/01/25 11:00:06;;;;;;;;;;;;;;;2.81;81.03;98513.63;4221273;28;5671;-68
2022/01/25 11:02:09;;;;;;;;;;;;;;;2.90;80.53;98509.59;4218893;28;5679;-66
2022/01/25 11:04:14;;;;;;;;;;;;;;;2.77;80.82;98506.13;4231979;28;5654;-67
2022/01/25 11:06:19;;;;;;;;;;;;;;;2.68;81.29;98507.56;4235347;28;5788;-67
2022/01/25 11:08:27;;;;;;;;;;;;;;;2.83;80.83;98503.94;4231763;28;5668;-67
2022/01/25 11:10:32;;;;;;;;;;;;;;;2.60;81.10;98499.41;4201766;28;5684;-68
2022/01/25 11:12:38;;;;;;;;;;;;;;;2.69;80.89;98495.34;4201790;28;5709;-68
2022/01/25 11:15:00;;;;;;;;;;;;;;;2.72;81.09;98498.63;4219146;28;5660;-67
2022/01/25 11:17:02;;;;;;;;;;;;;;;2.84;80.75;98497.78;4233280;28;6366;-67
2022/01/25 11:19:04;;;;;;;;;;;;;;;2.97;80.21;98496.97;4216309;28;5819;-67
2022/01/25 11:21:08;;;;;;;;;;;;;;;3.02;80.14;98494.84;4218252;28;5766;-67
2022/01/25 11:23:11;;;;;;;;;;;;;;;3.02;79.96;98494.84;4221963;28;5647;-67
2022/01/25 11:25:22;;;;;;;;;;;;;;;2.95;79.96;98491.84;4223313;28;5782;-67
2022/01/25 11:27:26;;;;;;;;;;;;;;;2.94;79.82;98492.75;4217730;28;5782;-67
2022/01/25 11:29:28;;;;;;;;;;;;;;;2.90;79.68;98494.75;4218248;28;5679;-68
2022/01/25 11:31:30;;;;;;;;;;;;;;;2.96;80.04;98490.06;4232762;28;5175;-68
2022/01/25 11:33:35;;;;;;;;;;;;;;;2.94;79.95;98492.75;4230884;28;5659;-68
2022/01/25 11:35:38;;;;;;;;;;;;;;;2.89;79.98;98489.63;4229929;28;5874;-67
2022/01/25 11:37:42;;;;;;;;;;;;;;;2.88;79.92;98482.72;4218854;28;5660;-67
2022/01/25 11:39:47;;;;;;;;;;;;;;;2.88;80.38;98488.78;4226764;28;5650;-67
2022/01/25 11:42:24;;;;;;;;;;;;;;;2.94;80.19;98487.53;4234315;28;5658;-67
2022/01/25 11:44:29;;;;;;;;;;;;;;;2.89;80.24;98480.00;4220914;28;5684;-67
2022/01/25 11:46:31;;;;;;;;;;;;;;;2.86;80.32;98479.41;4225331;28;5692;-67
2022/01/25 11:48:42;;;;;;;;;;;;;;;2.98;80.26;98470.72;4229306;28;5772;-67
2022/01/25 11:50:44;;;;;;;;;;;;;;;3.00;79.93;98481.91;4235743;27;5808;-67
2022/01/25 11:52:51;;;;;;;;;;;;;;;3.10;79.71;98476.88;4223788;28;5671;-67
2022/01/25 11:55:15;;;;;;;;;;;;;;;3.13;79.43;98466.22;4219029;28;5727;-67
2022/01/25 11:57:22;;;;;;;;;;;;;;;3.06;80.12;98462.34;4219235;28;5693;-67
2022/01/25 11:59:34;;;;;;;;;;;;;;;3.14;80.17;98463.50;4217962;28;5667;-67
2022/01/25 12:01:35;;;;;;;;;;;;;;;2.94;80.39;98461.41;4218372;28;5813;-67
2022/01/25 12:03:52;;;;;;;;;;;;;;;3.05;80.36;98463.28;4218425;28;5667;-67
2022/01/25 12:05:58;;;;;;;;;;;;;;;3.11;79.85;98453.25;4235829;27;5646;-67
2022/01/25 12:08:04;;;;;;;;;;;;;;;3.24;79.61;98455.84;4235744;27;5645;-67
2022/01/25 12:10:42;;;;;;;;;;;;;;;3.19;80.02;98460.56;4233074;28;5646;-67
2022/01/25 12:13:16;;;;;;;;;;;;;;;3.23;79.30;98451.56;4217987;28;5711;-67
2022/01/25 12:15:22;;;;;;;;;;;;;;;3.29;79.27;98456.38;4217480;28;5787;-67
2022/01/25 12:17:27;;;;;;;;;;;;;;;3.30;79.09;98450.22;4222574;28;5735;-67
2022/01/25 12:19:37;;;;;;;;;;;;;;;3.16;79.25;98447.69;4219026;28;6322;-67
2022/01/25 12:21:45;;;;;;;;;;;;;;;3.27;79.48;98449.56;4235229;27;5660;-67
2022/01/25 12:23:47;;;;;;;;;;;;;;;3.39;79.11;98438.25;4223822;27;5671;-66
2022/01/25 12:25:55;;;;;;;;;;;;;;;3.33;78.51;98439.53;4232452;28;5647;-65
2022/01/25 12:28:27;;;;;;;;;;;;;;;3.10;79.54;98433.28;4217811;28;5664;-67
2022/01/25 12:30:40;;;;;;;;;;;;;;;3.15;79.32;98433.81;4228067;28;5662;-67
2022/01/25 12:33:03;;;;;;;;;;;;;;;2.77;81.19;98431.22;4232433;28;5662;-67
2022/01/25 12:35:08;;;;;;;;;;;;;;;3.00;80.39;98437.47;4225428;27;5701;-67
2022/01/25 12:37:55;;;;;;;;;;;;;;;3.20;79.62;98429.09;4227734;28;5663;-66
2022/01/25 12:40:25;;;;;;;;;;;;;;;3.17;79.71;98418.00;4218539;28;5680;-67
2022/01/25 12:42:31;;;;;;;;;;;;;;;3.23;79.33;98414.97;4220995;28;5654;-67
2022/01/25 12:44:33;;;;;;;;;;;;;;;3.29;78.94;98427.63;4235584;28;5658;-67
2022/01/25 12:46:40;;;;;;;;;;;;;;;3.17;78.93;98423.22;4235365;27;5642;-67
2022/01/25 12:48:46;;;;;;;;;;;;;;;3.10;79.21;98425.47;4234832;28;5654;-67
2022/01/25 12:50:51;;;;;;;;;;;;;;;3.10;79.31;98422.84;4217163;28;5668;-66
2022/01/25 12:52:54;;;;;;;;;;;;;;;3.10;79.79;98425.47;4227632;28;5675;-66
2022/01/25 12:54:59;;;;;;;;;;;;;;;3.09;79.55;98422.94;4218221;28;5676;-67
2022/01/25 12:57:07;;;;;;;;;;;;;;;3.18;79.52;98417.94;4218187;28;6328;-66
2022/01/25 12:59:17;;;;;;;;;;;;;;;3.17;79.60;98412.78;4217701;28;5671;-67
2022/01/25 13:01:21;;;;;;;;;;;;;;;3.22;79.64;98414.16;4219836;28;5784;-66
2022/01/25 13:03:39;;;;;;;;;;;;;;;3.20;79.71;98415.19;4221856;28;5668;-66
2022/01/25 13:05:56;;;;;;;;;;;;;;;2.97;80.65;98408.13;4220344;28;5672;-67
2022/01/25 13:08:18;;;;;;;;;;;;;;;3.19;79.73;98403.91;4221837;28;5664;-66
2022/01/25 13:10:30;;;;;;;;;;;;;;;3.07;80.07;98409.16;4221846;28;5675;-66
2022/01/25 13:12:36;;;;;;;;;;;;;;;3.13;79.84;98399.09;4219881;28;5659;-66
2022/01/25 13:16:51;;;;;;;;;;;;;;;2.97;80.75;98398.50;4221426;28;6376;-67
2022/01/25 13:18:58;;;;;;;;;;;;;;;3.07;80.26;98394.31;4221844;28;5660;-67
2022/01/25 13:21:04;;;;;;;;;;;;;;;2.99;80.62;98390.56;4226009;28;5658;-67
2022/01/25 13:23:06;;;;;;;;;;;;;;;3.07;80.00;98389.09;4220595;28;5679;-67
2022/01/25 13:25:27;;;;;;;;;;;;;;;3.14;79.91;98392.09;4238278;28;5677;-66
2022/01/25 13:27:32;;;;;;;;;;;;;;;3.27;79.59;98384.22;4221434;28;5694;-66
2022/01/25 13:32:24;;;;;;;;;;;;;;;3.12;80.26;98378.31;4221464;28;5683;-67
2022/01/25 13:34:32;;;;;;;;;;;;;;;3.11;80.07;98374.88;4219965;28;5711;-66
2022/01/25 13:36:38;;;;;;;;;;;;;;;3.07;80.06;98381.25;4221063;28;5680;-66
2022/01/25 13:38:41;;;;;;;;;;;;;;;3.06;80.53;98382.19;4211385;28;5679;-66
2022/01/25 13:43:18;;;;;;;;;;;;;;;3.01;80.60;98373.84;4237663;28;5682;-66
2022/01/25 13:47:38;;;;;;;;;;;;;;;3.17;80.49;98376.19;4236405;28;5639;-66
2022/01/25 13:49:41;;;;;;;;;;;;;;;3.19;80.19;98371.72;4223873;28;5679;-66
2022/01/25 13:51:52;;;;;;;;;;;;;;;3.14;80.34;98363.34;4209941;28;5673;-66
2022/01/25 13:54:00;;;;;;;;;;;;;;;2.75;81.68;98367.81;4220266;28;5803;-66
2022/01/25 13:56:04;;;;;;;;;;;;;;;2.91;81.35;98360.56;4224280;28;5910;-66
2022/01/25 13:58:26;;;;;;;;;;;;;;;2.93;81.07;98361.28;4232491;28;5704;-66
2022/01/25 14:00:29;;;;;;;;;;;;;;;3.02;80.96;98359.00;4220748;28;5668;-66
2022/01/25 14:02:31;;;;;;;;;;;;;;;3.08;80.30;98364.63;4231507;28;5663;-66
2022/01/25 14:04:37;;;;;;;;;;;;;;;3.05;80.22;98364.00;4234394;27;5654;-66
2022/01/25 14:07:00;;;;;;;;;;;;;;;3.09;80.39;98362.84;4232135;28;5651;-66
2022/01/25 14:09:07;;;;;;;;;;;;;;;2.99;80.73;98360.06;4221117;28;5010;-66
2022/01/25 14:23:22;;;;;;;;;;;;;;;2.78;81.86;98359.75;4222167;28;5688;-67
2022/01/25 14:25:37;;;;;;;;;;;;;;;2.94;81.23;98356.91;4220568;28;5771;-66
2022/01/25 14:27:52;;;;;;;;;;;;;;;2.74;82.37;98357.47;4218674;28;5691;-67
2022/01/25 14:29:54;;;;;;;;;;;;;;;2.92;81.82;98358.78;4220687;28;5668;-67
2022/01/25 14:32:03;;;;;;;;;;;;;;;2.95;81.80;98352.53;4221794;28;6681;-67
2022/01/25 14:34:06;;;;;;;;;;;;;;;2.99;81.72;98354.81;4227858;28;5743;-67
2022/01/25 14:36:10;;;;;;;;;;;;;;;2.95;81.81;98344.72;4220010;28;5793;-67
2022/01/25 14:38:20;;;;;;;;;;;;;;;3.04;81.38;98347.47;4227769;28;5683;-67
2022/01/25 14:40:22;;;;;;;;;;;;;;;3.02;81.41;98353.75;4237124;27;5662;-67
2022/01/25 14:42:24;;;;;;;;;;;;;;;3.01;81.46;98346.88;4224950;27;5668;-67
2022/01/25 14:44:30;;;;;;;;;;;;;;;2.85;81.82;98353.19;4221955;28;6256;-67
2022/01/25 14:46:36;;;;;;;;;;;;;;;2.93;81.60;98350.00;4227039;28;5688;-67
2022/01/25 14:48:41;;;;;;;;;;;;;;;3.04;81.38;98357.09;4219841;28;5668;-66
2022/01/25 14:50:43;;;;;;;;;;;;;;;2.85;82.12;98342.72;4220511;28;5661;-66
2022/01/25 14:53:05;;;;;;;;;;;;;;;2.99;81.45;98351.38;4234388;28;5730;-67
2022/01/25 14:55:22;;;;;;;;;;;;;;;3.02;80.99;98353.75;4234659;28;5665;-67
2022/01/25 14:57:39;;;;;;;;;;;;;;;2.96;81.19;98346.38;4235935;28;5658;-67
2022/01/25 14:59:48;;;;;;;;;;;;;;;2.98;81.34;98349.72;4229736;27;5655;-67
2022/01/25 15:02:02;;;;;;;;;;;;;;;2.98;81.48;98347.94;4233013;28;5904;-66
2022/01/25 15:04:04;;;;;;;;;;;;;;;2.88;81.82;98347.75;4233866;27;5787;-66
2022/01/25 15:06:05;;;;;;;;;;;;;;;2.83;81.98;98349.84;4220172;28;5727;-70
2022/01/25 15:08:07;;;;;;;;;;;;;;;2.90;82.00;98345.84;4219526;28;5672;-70
2022/01/25 15:10:10;;;;;;;;;;;;;;;2.91;81.52;98355.34;4231874;28;5654;-70
2022/01/25 15:12:12;;;;;;;;;;;;;;;2.97;81.53;98354.09;4232047;27;5762;-69
2022/01/25 15:14:19;;;;;;;;;;;;;;;2.72;82.48;98357.59;4231160;28;6604;-69
2022/01/25 15:16:21;;;;;;;;;;;;;;;2.60;83.15;98350.56;4228760;28;5867;-68
2022/01/25 15:18:25;;;;;;;;;;;;;;;2.75;82.52;98346.94;4232696;28;6320;-68
2022/01/25 15:20:26;;;;;;;;;;;;;;;2.90;81.98;98352.84;4221584;28;5654;-68
2022/01/25 15:22:29;;;;;;;;;;;;;;;2.94;81.68;98354.28;4217634;28;5675;-68
2022/01/25 15:24:31;;;;;;;;;;;;;;;2.92;81.66;98351.78;4225208;28;5671;-68
2022/01/25 15:26:36;;;;;;;;;;;;;;;2.53;83.32;98350.19;4223665;28;5773;-69
2022/01/25 15:28:43;;;;;;;;;;;;;;;2.69;82.79;98347.34;4219250;28;5664;-69
2022/01/25 15:30:46;;;;;;;;;;;;;;;2.77;82.44;98338.97;4226840;28;5713;-69
2022/01/25 15:32:48;;;;;;;;;;;;;;;2.29;84.66;98344.03;4222258;28;5823;-69
2022/01/25 15:34:50;;;;;;;;;;;;;;;2.29;84.66;98339.63;4236354;28;5647;-69
2022/01/25 15:36:52;;;;;;;;;;;;;;;2.60;83.28;98342.75;4213205;28;5703;-69
2022/01/25 15:38:54;;;;;;;;;;;;;;;2.71;82.91;98344.63;4229773;27;5680;-69
2022/01/25 15:40:56;;;;;;;;;;;;;;;2.75;82.58;98341.69;4220456;28;5684;-68
2022/01/25 15:42:58;;;;;;;;;;;;;;;2.79;82.24;98339.69;4223218;28;5755;-68
2022/01/25 15:45:10;;;;;;;;;;;;;;;2.84;82.08;98345.47;4234913;28;5650;-69
2022/01/25 15:47:17;;;;;;;;;;;;;;;2.92;81.90;98343.97;4194003;28;5917;-68
2022/01/25 15:49:20;;;;;;;;;;;;;;;2.75;82.84;98346.94;4205839;28;5638;-67
2022/01/25 15:51:22;;;;;;;;;;;;;;;2.87;82.37;98345.22;4222336;27;5758;-69
2022/01/25 15:53:24;;;;;;;;;;;;;;;2.55;83.94;98344.84;4217821;28;5811;-68
2022/01/25 15:55:26;;;;;;;;;;;;;;;2.71;83.12;98340.22;4202953;28;5790;-68
2022/01/25 15:57:28;;;;;;;;;;;;;;;2.83;82.57;98344.63;4222841;28;5207;-68
2022/01/25 15:59:30;;;;;;;;;;;;;;;2.86;82.58;98336.56;4223108;28;5752;-69
2022/01/25 16:01:33;;;;;;;;;;;;;;;2.69;83.61;98346.50;4220920;27;5753;-68
2022/01/25 16:03:36;;;;;;;;;;;;;;;2.59;84.26;98341.91;4220775;28;5854;-69
2022/01/25 16:05:41;;;;;;;;;;;;;;;2.65;83.72;98345.88;4216531;28;5771;-69
2022/01/25 16:07:47;;;;;;;;;;;;;;;2.78;83.01;98345.88;4215913;28;5894;-69
2022/01/25 16:09:54;;;;;;;;;;;;;;;2.78;82.87;98354.53;4235977;27;5711;-69
2022/01/25 16:11:56;;;;;;;;;;;;;;;2.81;82.62;98356.94;4232699;27;5676;-70
2022/01/25 16:13:58;;;;;;;;;;;;;;;2.79;82.67;98348.38;4235274;27;5650;-69
2022/01/25 16:16:00;;;;;;;;;;;;;;;2.79;82.47;98348.38;4213390;28;5781;-69
2022/01/25 16:18:03;;;;;;;;;;;;;;;2.73;82.87;98345.38;4220962;28;5867;-68
2022/01/25 16:20:05;;;;;;;;;;;;;;;2.75;82.69;98344.31;4213618;28;5773;-69
2022/01/25 16:22:07;;;;;;;;;;;;;;;2.75;82.71;98349.53;4236857;27;5828;-69
2022/01/25 16:24:10;;;;;;;;;;;;;;;2.77;82.41;98339.81;4219985;27;5757;-68
2022/01/25 16:26:18;;;;;;;;;;;;;;;2.83;82.39;98348.97;4240572;27;5716;-68
2022/01/25 16:28:24;;;;;;;;;;;;;;;2.85;82.00;98340.13;4237421;27;5701;-68
2022/01/25 16:30:28;;;;;;;;;;;;;;;2.84;81.93;98346.28;4248807;27;5661;-68
2022/01/25 16:32:35;;;;;;;;;;;;;;;2.84;81.77;98342.84;4243440;27;5728;-68
2022/01/25 16:34:38;;;;;;;;;;;;;;;2.84;82.09;98346.28;4241603;27;5708;-68
2022/01/25 16:36:41;;;;;;;;;;;;;;;2.73;82.59;98351.44;4218015;28;6015;-68
2022/01/25 16:38:44;;;;;;;;;;;;;;;2.76;82.40;98348.59;4233714;27;6576;-70
2022/01/25 16:40:48;;;;;;;;;;;;;;;2.83;82.17;98343.75;4226258;28;5800;-69